Terminal Aerodrome Forecast
Issued by NWS Billings, MT

Home | Current Version | Previous Version | Text Only | Print | Product List | Glossary On
Versions: 1 2 3 4 5 6 7 8 9 10 11 12 13 14
000
FTUS45 KBYZ 202329
TAFSHR
TAF
KSHR 202329Z 2100/2124 VRB05KT P6SM FEW020 SCT040 BKN120
     FM210700 VRB05KT P6SM FEW010 SCT150=

USA.gov is the U.S. government's official web portal to all federal, state and local government web resources and services.